Mount Eaton, OH (44659)

8:03 AM EST on December 07, 2016 (GMT -0500)
Brewster / Mt Eaton | | Change Station

Elev 1073 ft 40.71 °N, 81.65 °W | Updated 11 seconds ago

Clear
Clear
29.8 °F
Feels Like 30 °F
N
1.1
Wind Variable Wind from SW
Gusts 2.5 mph

Today
High -- | Low -- °F
--% Chance of Precip.
Yesterday
High -- | Low -- °F
Precip. -- in
Pressure 30.09 in
Visibility 10.0 miles
Clouds Clear
Windchill 30 °F
Dew Point 24 °F
Humidity 80%
Rainfall 0.00 in
Snow Depth Not available.
7:37 AM 4:59 PM
First Quarter, 52% visible
METAR KBJJ 071256Z AUTO 24008KT 10SM CLR M02/M05 A3006 RMK AO2 SLP189 T10221050
Pressure 30.09 in
Visibility 10.0 miles
Clouds Clear
Windchill 30 °F
Dew Point 24 °F
Humidity 80%
Rainfall 0.00 in
Snow Depth Not available.
7:37 AM 4:59 PM
First Quarter, 52% visible
METAR KBJJ 071256Z AUTO 24008KT 10SM CLR M02/M05 A3006 RMK AO2 SLP189 T10221050

10-Day Weather Forecast

Almanac

Astronomy

Dec. 07, 2016 Rise Set
Actual Time
Civil Twilight
Nautical Twilight
Astronomical Twilight
Moon
Length of Visible Light
Length of Day
Tomorrow will be .
, % of the Moon is Illuminated

Today's Extremes

State Highs State Lows

Community

WunderPhotos

Upload Photos

1,956,112 photos uploaded!

WunderBlog® & News

Nearby

Air Quality

  Air Quality AQ Index Pollutant
Not available.

Snow Depth

Station Depth Elevation

Earthquake Activity

City Distance Mag. Time & Date
Minimum magnitude displayed is 2.5.

Coastal Water Temperatures

Place Temperature

Stations

Nearby Weather Stations

Station Location Temp. Windchill Dew Point Humidity Wind Precip. Elev Updated Type
                   

Watches & Warnings

There are currently no watches in effect.